createdAt,value
2016-02-17T00:00:33.967Z,3.68
2016-02-17T00:01:33.969Z,3.67
2016-02-17T00:02:33.972Z,3.63
2016-02-17T00:03:33.818Z,3.67
2016-02-17T00:04:33.978Z,3.64
2016-02-17T00:05:33.966Z,3.67
2016-02-17T00:06:33.968Z,3.64
2016-02-17T00:07:33.955Z,3.64
2016-02-17T00:08:33.957Z,3.64
2016-02-17T00:09:33.960Z,3.67
2016-02-17T00:10:33.962Z,3.67
2016-02-17T00:11:33.966Z,3.66
2016-02-17T00:12:33.952Z,3.66
2016-02-17T00:13:33.955Z,3.68
2016-02-17T00:14:33.974Z,3.59
2016-02-17T00:15:33.976Z,3.59
2016-02-17T00:16:33.948Z,3.58
2016-02-17T00:17:33.965Z,3.61
2016-02-17T00:18:33.968Z,3.59
2016-02-17T00:19:33.937Z,3.64
2016-02-17T00:20:33.940Z,3.59
2016-02-17T00:21:33.942Z,3.56
2016-02-17T00:22:33.945Z,3.64
2016-02-17T00:23:33.948Z,3.58
2016-02-17T00:24:33.950Z,3.63
2016-02-17T00:25:33.938Z,3.58
2016-02-17T00:26:33.941Z,3.61
2016-02-17T00:27:33.944Z,3.59
2016-02-17T00:28:33.947Z,3.49
2016-02-17T00:29:33.949Z,3.55
2016-02-17T00:30:33.941Z,3.48
2016-02-17T00:31:33.943Z,3.58
2016-02-17T00:32:33.946Z,3.53
2016-02-17T00:33:33.949Z,3.56
2016-02-17T00:34:33.936Z,3.58
2016-02-17T00:35:33.938Z,3.48
2016-02-17T00:36:33.941Z,3.52
2016-02-17T00:37:33.960Z,3.59
2016-02-17T00:38:33.946Z,3.49
2016-02-17T00:39:33.934Z,3.53
2016-02-17T00:40:33.936Z,3.55
2016-02-17T00:41:33.924Z,3.5
2016-02-17T00:42:33.926Z,3.56
2016-02-17T00:43:33.929Z,3.5
2016-02-17T00:44:33.931Z,3.48
2016-02-17T00:45:33.934Z,3.4
2016-02-17T00:46:33.921Z,3.52
2016-02-17T00:47:33.924Z,3.5
2016-02-17T00:48:33.926Z,3.43
2016-02-17T00:49:33.929Z,3.37
2016-02-17T00:50:33.932Z,3.49
2016-02-17T00:51:33.934Z,3.45
2016-02-17T00:52:33.922Z,3.52
2016-02-17T00:53:33.908Z,3.36
2016-02-17T00:54:33.912Z,3.46
2016-02-17T00:55:33.898Z,3.56
2016-02-17T00:56:33.917Z,3.52
2016-02-17T00:57:33.919Z,3.49
2016-02-17T00:58:33.922Z,3.52
2016-02-17T00:59:33.909Z,3.49
2016-02-17T01:00:33.927Z,3.55
2016-02-17T01:01:33.914Z,3.49
2016-02-17T01:02:33.917Z,3.37
2016-02-17T01:03:33.920Z,3.43
2016-02-17T01:04:33.907Z,3.43
2016-02-17T01:05:33.910Z,3.29
2016-02-17T01:06:33.912Z,3.36
2016-02-17T01:07:33.916Z,3.4
2016-02-17T01:08:33.918Z,3.29
2016-02-17T01:09:33.921Z,3.31
2016-02-17T01:10:33.907Z,3.4
2016-02-17T01:11:33.895Z,3.36
2016-02-17T01:12:33.898Z,3.3
2016-02-17T01:13:33.900Z,3.34
2016-02-17T01:14:33.903Z,3.4
2016-02-17T01:15:33.906Z,3.3
2016-02-17T01:16:33.908Z,3.33
2016-02-17T01:17:33.895Z,3.29
2016-02-17T01:18:33.898Z,3.3
2016-02-17T01:19:33.901Z,3.29
2016-02-17T01:20:33.903Z,3.27
2016-02-17T01:21:33.890Z,3.31
2016-02-17T01:22:33.892Z,3.24
2016-02-17T01:23:33.896Z,3.21
2016-02-17T01:24:33.883Z,3.18
2016-02-17T01:25:33.886Z,3.21
2016-02-17T01:26:33.889Z,3.18
2016-02-17T01:27:33.891Z,3.24
2016-02-17T01:28:33.878Z,3.19
2016-02-17T01:29:33.897Z,3.19
2016-02-17T01:30:33.883Z,3.13
2016-02-17T01:31:33.870Z,3.11
2016-02-17T01:32:33.889Z,3.16
2016-02-17T01:33:33.891Z,3.13
2016-02-17T01:34:33.878Z,3.09
2016-02-17T01:35:33.880Z,3.12
2016-02-17T01:36:33.884Z,3.09
2016-02-17T01:37:33.871Z,3.08
2016-02-17T01:38:33.874Z,3.06
2016-02-17T01:39:33.876Z,3.15
2016-02-17T01:40:33.879Z,3.15
2016-02-17T01:41:33.882Z,3.16
2016-02-17T01:42:33.884Z,3.15
2016-02-17T01:43:33.887Z,3.19
2016-02-17T01:44:33.874Z,3.11
2016-02-17T01:45:33.877Z,3.11
2016-02-17T01:46:33.879Z,3.03
2016-02-17T01:47:33.867Z,3.08
2016-02-17T01:48:33.870Z,3.06
2016-02-17T01:49:33.872Z,3
2016-02-17T01:50:33.859Z,3.11
2016-02-17T01:51:33.861Z,3.06
2016-02-17T01:52:33.864Z,2.97
2016-02-17T01:53:33.867Z,3.03
2016-02-17T01:54:33.854Z,3.01
2016-02-17T01:55:33.856Z,2.95
2016-02-17T01:56:33.859Z,2.97
2016-02-17T01:57:33.862Z,2.98
2016-02-17T01:58:33.850Z,3.01
2016-02-17T01:59:33.852Z,3
2016-02-17T02:00:33.855Z,2.98
2016-02-17T02:01:33.858Z,2.95
2016-02-17T02:02:33.860Z,3.01
2016-02-17T02:03:33.847Z,2.97
2016-02-17T02:04:33.865Z,2.94
2016-02-17T02:05:33.852Z,2.98
2016-02-17T02:06:33.855Z,2.97
2016-02-17T02:07:33.857Z,3.01
2016-02-17T02:08:33.845Z,2.94
2016-02-17T02:09:33.847Z,2.94
2016-02-17T02:10:33.850Z,2.91
2016-02-17T02:11:33.853Z,2.85
2016-02-17T02:12:33.855Z,2.85
2016-02-17T02:13:33.858Z,2.87
2016-02-17T02:14:33.846Z,2.83
2016-02-17T02:15:33.832Z,2.91
2016-02-17T02:16:33.851Z,2.91
2016-02-17T02:17:33.854Z,2.82
2016-02-17T02:18:33.841Z,2.83
2016-02-17T02:19:33.843Z,2.83
2016-02-17T02:20:33.845Z,2.76
2016-02-17T02:21:33.848Z,2.88
2016-02-17T02:22:33.851Z,2.87
2016-02-17T02:23:33.839Z,2.83
2016-02-17T02:24:33.841Z,2.77
2016-02-17T02:25:33.845Z,2.9
2016-02-17T02:26:33.848Z,2.9
2016-02-17T02:27:33.835Z,2.82
2016-02-17T02:28:33.853Z,2.65
2016-02-17T02:29:33.840Z,2.73
2016-02-17T02:30:33.843Z,2.8
2016-02-17T02:31:33.845Z,2.65
2016-02-17T02:32:33.817Z,2.73
2016-02-17T02:33:33.834Z,2.75
2016-02-17T02:34:33.823Z,2.65
2016-02-17T02:35:33.825Z,2.79
2016-02-17T02:36:33.843Z,2.76
2016-02-17T02:37:33.830Z,2.73
2016-02-17T02:38:33.817Z,2.62
2016-02-17T02:39:33.820Z,2.7
2016-02-17T02:40:33.822Z,2.73
2016-02-17T02:41:33.825Z,2.77
2016-02-17T02:42:33.828Z,2.72
2016-02-17T02:43:33.815Z,2.61
2016-02-17T02:44:33.833Z,2.69
2016-02-17T02:45:33.820Z,2.7
2016-02-17T02:46:33.823Z,2.68
2016-02-17T02:47:33.811Z,2.73
2016-02-17T02:48:33.813Z,2.7
2016-02-17T02:49:33.800Z,2.7
2016-02-17T02:50:33.802Z,2.64
2016-02-17T02:51:33.805Z,2.64
2016-02-17T02:52:33.808Z,2.73
2016-02-17T02:53:33.810Z,2.62
2016-02-17T02:54:33.798Z,2.68
2016-02-17T02:55:33.816Z,2.7
2016-02-17T02:56:33.804Z,2.7
2016-02-17T02:57:33.807Z,2.62
2016-02-17T02:58:33.809Z,2.64
2016-02-17T02:59:33.827Z,2.69
2016-02-17T03:00:33.798Z,2.64
2016-02-17T03:01:33.817Z,2.65
2016-02-17T03:02:33.803Z,2.7
2016-02-17T03:03:33.807Z,2.65
2016-02-17T03:04:33.793Z,2.64
2016-02-17T03:05:33.796Z,2.55
2016-02-17T03:06:33.798Z,2.64
2016-02-17T03:07:33.801Z,2.62
2016-02-17T03:08:33.789Z,2.61
2016-02-17T03:09:33.806Z,2.62
2016-02-17T03:10:33.794Z,2.68
2016-02-17T03:11:33.797Z,2.65
2016-02-17T03:12:33.784Z,2.64
2016-02-17T03:13:33.645Z,2.59
2016-02-17T03:14:33.805Z,2.54
2016-02-17T03:15:33.791Z,2.64
2016-02-17T03:16:33.779Z,2.52
2016-02-17T03:17:33.813Z,2.64
2016-02-17T03:18:33.769Z,2.62
2016-02-17T03:19:33.771Z,2.55
2016-02-17T03:20:33.774Z,2.64
2016-02-17T03:21:33.777Z,2.65
2016-02-17T03:22:33.779Z,2.59
2016-02-17T03:23:33.766Z,2.65
2016-02-17T03:24:33.769Z,2.54
2016-02-17T03:25:33.772Z,2.59
2016-02-17T03:26:33.774Z,2.61
2016-02-17T03:27:33.777Z,2.57
2016-02-17T03:28:33.780Z,2.58
2016-02-17T03:29:33.767Z,2.62
2016-02-17T03:30:33.785Z,2.62
2016-02-17T03:31:33.772Z,2.58
2016-02-17T03:32:33.760Z,2.61
2016-02-17T03:33:33.762Z,2.59
2016-02-17T03:34:33.765Z,2.58
2016-02-17T03:35:33.768Z,2.52
2016-02-17T03:36:33.770Z,2.47
2016-02-17T03:37:33.804Z,2.52
2016-02-17T03:38:33.759Z,2.59
2016-02-17T03:39:33.762Z,2.58
2016-02-17T03:40:33.765Z,2.47
2016-02-17T03:41:33.753Z,2.62
2016-02-17T03:42:33.770Z,2.44
2016-02-17T03:43:33.758Z,2.57
2016-02-17T03:44:33.760Z,2.59
2016-02-17T03:45:33.747Z,2.59
2016-02-17T03:46:33.766Z,2.58
2016-02-17T03:47:33.753Z,2.44
2016-02-17T03:48:33.771Z,2.57
2016-02-17T03:49:33.742Z,2.5
2016-02-17T03:50:33.777Z,2.51
2016-02-17T03:51:33.747Z,2.55
2016-02-17T03:52:33.766Z,2.5
2016-02-17T03:53:33.738Z,2.51
2016-02-17T03:54:33.741Z,2.54
2016-02-17T03:55:33.743Z,2.51
2016-02-17T03:56:33.746Z,2.47
2016-02-17T03:57:33.749Z,2.46
2016-02-17T03:58:33.751Z,2.46
2016-02-17T03:59:33.738Z,2.43
2016-02-17T04:00:33.740Z,2.5
2016-02-17T04:01:33.729Z,2.41
2016-02-17T04:02:33.746Z,2.43
2016-02-17T04:03:33.734Z,2.5
2016-02-17T04:04:33.737Z,2.46
2016-02-17T04:05:33.739Z,2.46
2016-02-17T04:06:33.742Z,2.5
2016-02-17T04:07:33.728Z,2.39
2016-02-17T04:08:33.731Z,2.44
2016-02-17T04:09:33.718Z,2.36
2016-02-17T04:10:33.737Z,2.43
2016-02-17T04:11:33.723Z,2.46
2016-02-17T04:12:33.726Z,2.44
2016-02-17T04:13:33.728Z,2.47
2016-02-17T04:14:33.763Z,2.44
2016-02-17T04:15:33.719Z,2.39
2016-02-17T04:16:33.722Z,2.36
2016-02-17T04:17:33.724Z,2.41
2016-02-17T04:18:33.727Z,2.37
2016-02-17T04:19:33.714Z,2.39
2016-02-17T04:20:33.716Z,2.41
2016-02-17T04:21:33.719Z,2.32
2016-02-17T04:22:33.706Z,2.37
2016-02-17T04:23:33.725Z,2.43
2016-02-17T04:24:33.711Z,2.36
2016-02-17T04:25:33.714Z,2.41
2016-02-17T04:26:33.717Z,2.39
2016-02-17T04:27:33.719Z,2.39
2016-02-17T04:28:33.707Z,2.39
2016-02-17T04:29:33.709Z,2.32
2016-02-17T04:30:33.696Z,2.33
2016-02-17T04:31:33.699Z,2.39
2016-02-17T04:32:33.702Z,2.41
2016-02-17T04:33:33.705Z,2.34
2016-02-17T04:34:33.692Z,2.3
2016-02-17T04:35:33.710Z,2.32
2016-02-17T04:36:33.697Z,2.34
2016-02-17T04:37:33.715Z,2.33
2016-02-17T04:38:33.687Z,2.37
2016-02-17T04:39:33.690Z,2.32
2016-02-17T04:40:33.708Z,2.28
2016-02-17T04:41:33.695Z,2.3
2016-02-17T04:42:33.681Z,2.33
2016-02-17T04:43:33.528Z,2.37
2016-02-17T04:44:33.687Z,2.3
2016-02-17T04:45:33.689Z,2.26
2016-02-17T04:46:33.693Z,2.4
2016-02-17T04:47:33.680Z,2.37
2016-02-17T04:48:33.683Z,2.3
2016-02-17T04:49:33.686Z,2.34
2016-02-17T04:50:33.688Z,2.33
2016-02-17T04:51:33.675Z,2.32
2016-02-17T04:52:33.694Z,2.3
2016-02-17T04:53:33.680Z,2.37
2016-02-17T04:54:33.683Z,2.39
2016-02-17T04:55:33.686Z,2.33
2016-02-17T04:56:33.672Z,2.34
2016-02-17T04:57:33.675Z,2.4
2016-02-17T04:58:33.677Z,2.26
2016-02-17T04:59:33.680Z,2.32
2016-02-17T05:00:33.668Z,2.18
2016-02-17T05:01:33.671Z,2.18
2016-02-17T05:02:33.674Z,2.21
2016-02-17T05:03:33.676Z,2.14
2016-02-17T05:04:33.663Z,2.15
2016-02-17T05:05:33.665Z,2.19
2016-02-17T05:06:33.668Z,2.25
2016-02-17T05:07:33.656Z,2.22
2016-02-17T05:08:33.674Z,2.16
2016-02-17T05:09:33.662Z,2.19
2016-02-17T05:10:33.664Z,2.19
2016-02-17T05:11:33.667Z,2.19
2016-02-17T05:12:33.653Z,2.21
2016-02-17T05:13:33.656Z,2.21
2016-02-17T05:14:33.658Z,2.21
2016-02-17T05:15:33.662Z,2.19
2016-02-17T05:16:33.664Z,2.3
2016-02-17T05:17:33.651Z,2.19
2016-02-17T05:18:33.654Z,2.23
2016-02-17T05:19:33.656Z,2.22
2016-02-17T05:20:33.644Z,2.21
2016-02-17T05:21:33.661Z,2.22
2016-02-17T05:22:33.664Z,2.28
2016-02-17T05:23:33.652Z,2.16
2016-02-17T05:24:33.670Z,2.22
2016-02-17T05:25:33.642Z,2.21
2016-02-17T05:26:33.660Z,2.3
2016-02-17T05:27:33.647Z,2.33
2016-02-17T05:28:33.649Z,2.33
2016-02-17T05:29:33.636Z,2.19
2016-02-17T05:30:33.639Z,2.36
2016-02-17T05:31:33.642Z,2.22
2016-02-17T05:32:33.644Z,2.23
2016-02-17T05:33:33.632Z,2.18
2016-02-17T05:34:33.649Z,2.25
2016-02-17T05:35:33.637Z,2.21
2016-02-17T05:36:33.640Z,2.25
2016-02-17T05:37:33.643Z,2.26
2016-02-17T05:38:33.646Z,2.21
2016-02-17T05:39:33.632Z,2.26
2016-02-17T05:40:33.635Z,2.16
2016-02-17T05:41:33.622Z,2.26
2016-02-17T05:42:33.625Z,2.18
2016-02-17T05:43:33.642Z,2.14
2016-02-17T05:44:33.615Z,2.16
2016-02-17T05:45:33.633Z,2.25
2016-02-17T05:46:33.620Z,2.19
2016-02-17T05:47:33.607Z,2.23
2016-02-17T05:48:33.609Z,2.22
2016-02-17T05:49:33.628Z,2.19
2016-02-17T05:50:33.599Z,2.19
2016-02-17T05:51:33.617Z,2.22
2016-02-17T05:52:33.620Z,2.21
2016-02-17T05:53:33.623Z,2.23
2016-02-17T05:54:33.626Z,2.21
2016-02-17T05:55:33.628Z,2.25
2016-02-17T05:56:33.600Z,2.16
2016-02-17T05:57:33.618Z,2.16
2016-02-17T05:58:33.605Z,2.23
2016-02-17T05:59:33.607Z,2.18
2016-02-17T06:00:33.611Z,2.21
2016-02-17T06:01:33.598Z,2.28
2016-02-17T06:02:33.600Z,2.26
2016-02-17T06:03:33.618Z,2.28
2016-02-17T06:04:33.605Z,2.23
2016-02-17T06:05:33.624Z,2.26
2016-02-17T06:06:33.595Z,2.3
2016-02-17T06:07:33.599Z,2.32
2016-02-17T06:08:33.601Z,2.22
2016-02-17T06:09:33.604Z,2.19
2016-02-17T06:10:33.590Z,2.22
2016-02-17T06:11:33.609Z,2.33
2016-02-17T06:12:33.612Z,2.33
2016-02-17T06:13:33.598Z,2.28
2016-02-17T06:14:33.602Z,2.37
2016-02-17T06:15:33.604Z,2.32
2016-02-17T06:16:33.606Z,2.3
2016-02-17T06:17:33.594Z,2.22
2016-02-17T06:18:33.581Z,2.25
2016-02-17T06:19:33.600Z,2.3
2016-02-17T06:20:33.587Z,2.3
2016-02-17T06:21:33.589Z,2.22
2016-02-17T06:22:33.591Z,2.16
2016-02-17T06:23:33.595Z,2.19
2016-02-17T06:24:33.582Z,2.08
2016-02-17T06:25:33.600Z,2.18
2016-02-17T06:26:33.572Z,2.23
2016-02-17T06:27:33.589Z,2.07
2016-02-17T06:28:33.577Z,2.14
2016-02-17T06:29:33.594Z,2.14
2016-02-17T06:30:33.410Z,2.14
2016-02-17T06:31:33.585Z,2.04
2016-02-17T06:32:33.572Z,2.14
2016-02-17T06:33:33.591Z,2.1
2016-02-17T06:34:33.577Z,2.03
2016-02-17T06:35:33.580Z,2.07
2016-02-17T06:36:33.566Z,2.08
2016-02-17T06:37:33.585Z,2.01
2016-02-17T06:38:33.556Z,2.01
2016-02-17T06:39:33.591Z,1.89
2016-02-17T06:40:33.578Z,1.89
2016-02-17T06:41:33.596Z,1.97
2016-02-17T06:42:33.552Z,1.92
2016-02-17T06:43:33.570Z,1.86
2016-02-17T06:44:33.557Z,1.92
2016-02-17T06:45:33.559Z,1.97
2016-02-17T06:46:33.562Z,2
2016-02-17T06:47:33.566Z,2
2016-02-17T06:48:33.537Z,2.04
2016-02-17T06:49:33.556Z,1.98
2016-02-17T06:50:33.558Z,2
2016-02-17T06:51:33.545Z,1.92
2016-02-17T06:52:33.548Z,1.97
2016-02-17T06:53:33.550Z,1.97
2016-02-17T06:54:33.552Z,1.89
2016-02-17T06:55:33.556Z,2.03
2016-02-17T06:56:33.559Z,1.86
2016-02-17T06:57:33.561Z,1.97
2016-02-17T06:58:33.547Z,1.82
2016-02-17T06:59:33.550Z,1.93
2016-02-17T07:00:33.553Z,1.88
2016-02-17T07:01:33.555Z,1.86
2016-02-17T07:02:33.544Z,1.75
2016-02-17T07:03:33.547Z,1.78
2016-02-17T07:04:33.563Z,1.7
2016-02-17T07:05:33.535Z,1.66
2016-02-17T07:06:33.538Z,1.61
2016-02-17T07:07:33.541Z,1.71
2016-02-17T07:08:33.528Z,1.68
2016-02-17T07:09:33.531Z,1.61
2016-02-17T07:10:33.533Z,1.56
2016-02-17T07:11:33.521Z,1.64
2016-02-17T07:12:33.524Z,1.57
2016-02-17T07:13:33.541Z,1.63
2016-02-17T07:14:33.529Z,1.64
2016-02-17T07:15:33.531Z,1.56
2016-02-17T07:16:33.535Z,1.57
2016-02-17T07:17:33.521Z,1.63
2016-02-17T07:18:33.508Z,1.61
2016-02-17T07:19:33.526Z,1.48
2016-02-17T07:20:33.529Z,1.43
2016-02-17T07:21:33.516Z,1.53
2016-02-17T07:22:33.551Z,1.43
2016-02-17T07:23:33.505Z,1.46
2016-02-17T07:24:33.509Z,1.31
2016-02-17T07:25:33.511Z,1.31
2016-02-17T07:26:33.514Z,1.32
2016-02-17T07:27:33.501Z,1.32
2016-02-17T07:28:33.519Z,1.36
2016-02-17T07:29:33.522Z,1.38
2016-02-17T07:30:33.509Z,1.38
2016-02-17T07:31:33.527Z,1.36
2016-02-17T07:32:33.515Z,1.27
2016-02-17T07:33:33.502Z,1.28
2016-02-17T07:34:33.520Z,1.21
2016-02-17T07:35:33.522Z,1.27
2016-02-17T07:36:33.494Z,1.16
2016-02-17T07:37:33.497Z,1.18
2016-02-17T07:38:33.515Z,1.09
2016-02-17T07:39:33.502Z,1.12
2016-02-17T07:40:33.505Z,1.14
2016-02-17T07:41:33.508Z,1.14
2016-02-17T07:42:33.510Z,1.12
2016-02-17T07:43:33.497Z,1.13
2016-02-17T07:44:33.360Z,1.12
2016-02-17T07:45:33.487Z,1.21
2016-02-17T07:46:33.489Z,1.21
2016-02-17T07:47:33.508Z,1.25
2016-02-17T07:48:33.495Z,1.16
2016-02-17T07:49:33.479Z,1.12
2016-02-17T07:50:33.464Z,1.09
2016-02-17T07:51:33.451Z,1.14
2016-02-17T07:52:33.437Z,1.13
2016-02-17T07:53:33.424Z,1.16
2016-02-17T07:54:33.412Z,1.16
2016-02-17T07:55:33.393Z,1.2
2016-02-17T07:56:33.406Z,1.12
2016-02-17T07:57:33.388Z,1.14
2016-02-17T07:58:33.368Z,1.12
2016-02-17T07:59:33.382Z,1.16
2016-02-17T08:00:33.366Z,1.14
2016-02-17T08:01:33.351Z,1.21
2016-02-17T08:02:33.369Z,1.21
2016-02-17T08:03:33.353Z,1.22
2016-02-17T08:04:33.183Z,1.21
2016-02-17T08:05:33.356Z,1.21
2016-02-17T08:06:33.390Z,1.21
2016-02-17T08:07:33.345Z,1.22
2016-02-17T08:08:33.362Z,1.18
2016-02-17T08:09:33.349Z,1.2
2016-02-17T08:10:33.335Z,1.25
2016-02-17T08:11:33.337Z,1.22
2016-02-17T08:12:33.356Z,1.22
2016-02-17T08:13:33.342Z,1.21
2016-02-17T08:14:33.360Z,1.21
2016-02-17T08:15:33.363Z,1.22
2016-02-17T08:16:33.333Z,1.07
2016-02-17T08:17:33.322Z,1.24
2016-02-17T08:18:33.339Z,1.12
2016-02-17T08:19:33.358Z,1.18
2016-02-17T08:20:33.360Z,1.2
2016-02-17T08:21:33.332Z,1.21
2016-02-17T08:22:33.350Z,1.22
2016-02-17T08:23:33.321Z,1.31
2016-02-17T08:24:33.325Z,1.28
2016-02-17T08:25:33.327Z,1.27
2016-02-17T08:26:33.315Z,1.36
2016-02-17T08:27:33.318Z,1.28
2016-02-17T08:28:33.336Z,1.42
2016-02-17T08:29:33.307Z,1.42
2016-02-17T08:30:33.310Z,1.46
2016-02-17T08:31:33.313Z,1.63
2016-02-17T08:32:33.315Z,1.5
2016-02-17T08:33:33.317Z,1.58
2016-02-17T08:34:33.321Z,1.61
2016-02-17T08:35:33.323Z,1.64
2016-02-17T08:36:33.310Z,1.68
2016-02-17T08:37:33.312Z,1.71
2016-02-17T08:38:33.331Z,1.64
2016-02-17T08:39:33.303Z,1.76
2016-02-17T08:40:33.306Z,1.88
2016-02-17T08:41:33.308Z,1.86
2016-02-17T08:42:33.311Z,1.89
2016-02-17T08:43:33.298Z,2
2016-02-17T08:44:33.301Z,1.92
2016-02-17T08:45:33.304Z,1.98
2016-02-17T08:46:33.306Z,2.08
2016-02-17T08:47:33.309Z,2.12
2016-02-17T08:48:33.296Z,2.08
2016-02-17T08:49:33.314Z,2.07
2016-02-17T08:50:33.286Z,2.14
2016-02-17T08:51:33.288Z,2.07
2016-02-17T08:52:33.291Z,2.16
2016-02-17T08:53:33.293Z,2.21
2016-02-17T08:54:33.280Z,2.12
2016-02-17T08:55:33.283Z,2.04
2016-02-17T08:56:33.286Z,2.16
2016-02-17T08:57:33.289Z,2.21
2016-02-17T08:58:33.291Z,2.3
2016-02-17T08:59:33.294Z,2.28
2016-02-17T09:00:33.281Z,2.37
2016-02-17T09:01:33.284Z,2.47
2016-02-17T09:02:33.287Z,2.43
2016-02-17T09:03:33.274Z,2.5
2016-02-17T09:04:33.308Z,2.47
2016-02-17T09:05:33.279Z,2.57
2016-02-17T09:06:33.282Z,2.58
2016-02-17T09:07:33.284Z,2.61
2016-02-17T09:08:33.287Z,2.58
2016-02-17T09:09:33.274Z,2.62
2016-02-17T09:10:33.276Z,2.7
2016-02-17T09:11:33.279Z,2.79
2016-02-17T09:12:33.266Z,2.77
2016-02-17T09:13:33.270Z,2.72
2016-02-17T09:14:33.288Z,2.77
2016-02-17T09:15:33.275Z,2.85
2016-02-17T09:16:33.262Z,2.94
2016-02-17T09:17:33.264Z,3.08
2016-02-17T09:18:33.267Z,3.01
2016-02-17T09:19:33.269Z,3.21
2016-02-17T09:20:33.272Z,3.15
2016-02-17T09:21:33.259Z,3.03
2016-02-17T09:22:33.261Z,2.94
2016-02-17T09:23:33.281Z,3.09
2016-02-17T09:24:33.267Z,2.87
2016-02-17T09:25:33.286Z,2.9
2016-02-17T09:26:33.272Z,2.97
2016-02-17T09:27:33.260Z,3
2016-02-17T09:28:33.262Z,2.98
2016-02-17T09:29:33.266Z,3.15
2016-02-17T09:30:33.268Z,3.11
2016-02-17T09:31:33.255Z,3.3
2016-02-17T09:32:33.257Z,3.34
2016-02-17T09:33:33.260Z,3.22
2016-02-17T09:34:33.263Z,3.24
2016-02-17T09:35:33.250Z,3.33
2016-02-17T09:36:33.254Z,3.29
2016-02-17T09:37:33.257Z,3.29
2016-02-17T09:38:33.243Z,3.33
2016-02-17T09:39:33.246Z,3.4
2016-02-17T09:40:33.248Z,3.43
2016-02-17T09:41:33.251Z,3.5
2016-02-17T09:42:33.254Z,3.49
2016-02-17T09:43:33.256Z,3.53
2016-02-17T09:44:33.243Z,3.59
2016-02-17T09:45:33.245Z,3.61
2016-02-17T09:46:33.248Z,3.74
2016-02-17T09:47:33.251Z,3.76
2016-02-17T09:48:33.239Z,3.78
2016-02-17T09:49:33.256Z,3.71
2016-02-17T09:50:33.244Z,3.71
2016-02-17T09:51:33.231Z,3.78
2016-02-17T09:52:33.250Z,3.81
2016-02-17T09:53:33.236Z,3.86
2016-02-17T09:54:33.239Z,3.86
2016-02-17T09:55:33.241Z,3.86
2016-02-17T09:56:33.244Z,3.96
2016-02-17T09:57:33.247Z,4.02
2016-02-17T09:58:33.250Z,4.09
2016-02-17T09:59:33.269Z,4.02
2016-02-17T10:00:33.239Z,4.25
2016-02-17T10:01:33.227Z,4.24
2016-02-17T10:02:33.261Z,4.39
2016-02-17T10:03:33.232Z,4.38
2016-02-17T10:04:33.234Z,4.34
2016-02-17T10:05:33.252Z,4.46
2016-02-17T10:06:33.240Z,4.45
2016-02-17T10:07:33.227Z,4.48
2016-02-17T10:08:33.229Z,4.57
2016-02-17T10:09:33.248Z,4.53
2016-02-17T10:10:33.220Z,4.57
2016-02-17T10:11:33.222Z,4.6
2016-02-17T10:12:33.287Z,4.56
2016-02-17T10:13:33.228Z,4.57
2016-02-17T10:14:33.230Z,4.57
2016-02-17T10:15:33.234Z,4.68
2016-02-17T10:16:33.220Z,4.67
2016-02-17T10:17:33.223Z,4.71
2016-02-17T10:18:33.225Z,4.64
2016-02-17T10:19:33.228Z,4.74
2016-02-17T10:20:33.215Z,4.82
2016-02-17T10:21:33.217Z,4.97
2016-02-17T10:22:33.220Z,4.94
2016-02-17T10:23:33.208Z,4.9
2016-02-17T10:24:33.225Z,4.82
2016-02-17T10:25:33.228Z,4.83
2016-02-17T10:26:33.231Z,4.79
2016-02-17T10:27:33.219Z,4.89
2016-02-17T10:28:33.221Z,4.94
2016-02-17T10:29:33.208Z,5.01
2016-02-17T10:30:33.211Z,5.02
2016-02-17T10:31:33.214Z,4.98
2016-02-17T10:32:33.232Z,5.02
2016-02-17T10:33:33.219Z,5.05
2016-02-17T10:34:33.222Z,5.04
2016-02-17T10:35:33.208Z,5.1
2016-02-17T10:36:33.227Z,5.07
2016-02-17T10:37:33.214Z,5.1
2016-02-17T10:38:33.202Z,5.12
2016-02-17T10:39:33.205Z,5.07
2016-02-17T10:40:33.207Z,5.12
2016-02-17T10:41:33.210Z,5.12
2016-02-17T10:42:33.213Z,5.18
2016-02-17T10:43:33.232Z,5.19
2016-02-17T10:44:33.241Z,5.13
2016-02-17T10:45:32.900Z,5.1
2016-02-17T10:46:33.397Z,5.19
2016-02-17T10:47:33.472Z,5.22
2016-02-17T10:48:33.209Z,5.23
2016-02-17T10:49:33.211Z,5.18
2016-02-17T10:50:33.214Z,5.28
2016-02-17T10:51:33.217Z,5.28
2016-02-17T10:52:33.220Z,5.31
2016-02-17T10:53:33.189Z,5.29
2016-02-17T10:54:33.192Z,5.28
2016-02-17T10:55:33.195Z,5.31
2016-02-17T10:56:33.197Z,5.33
2016-02-17T10:57:33.194Z,5.31
2016-02-17T10:58:33.197Z,5.29
2016-02-17T10:59:33.199Z,5.4
2016-02-17T11:00:33.202Z,5.43
2016-02-17T11:01:33.190Z,5.44
2016-02-17T11:02:33.207Z,5.54
2016-02-17T11:03:33.195Z,5.61
2016-02-17T11:04:33.198Z,5.65
2016-02-17T11:05:33.201Z,5.77
2016-02-17T11:06:33.218Z,5.79
2016-02-17T11:07:33.034Z,5.91
2016-02-17T11:08:33.193Z,6.01
2016-02-17T11:09:33.195Z,6.07
2016-02-17T11:10:33.199Z,6.09
2016-02-17T11:11:33.201Z,6.1
2016-02-17T11:12:33.204Z,6.17
2016-02-17T11:13:33.190Z,6.26
2016-02-17T11:14:33.209Z,6.22
2016-02-17T11:15:33.228Z,6.32
2016-02-17T11:16:33.199Z,6.36
2016-02-17T11:17:33.202Z,6.5
2016-02-17T11:18:33.189Z,6.43
2016-02-17T11:19:33.192Z,6.5
2016-02-17T11:20:33.178Z,6.52
2016-02-17T11:21:33.197Z,6.53
2016-02-17T11:22:33.200Z,6.62
2016-02-17T11:23:33.187Z,6.59
2016-02-17T11:24:33.189Z,6.71
2016-02-17T11:25:33.223Z,6.6
2016-02-17T11:26:33.226Z,6.72
2016-02-17T11:27:33.181Z,6.72
2016-02-17T11:28:33.184Z,6.68
2016-02-17T11:29:33.187Z,6.75
2016-02-17T11:30:33.206Z,6.95
2016-02-17T11:31:33.192Z,6.93
2016-02-17T11:32:33.195Z,6.95
2016-02-17T11:33:33.198Z,7.01
2016-02-17T11:34:33.248Z,7.05
2016-02-17T11:35:33.188Z,7.1
2016-02-17T11:36:33.191Z,7.07
2016-02-17T11:37:33.240Z,7.11
2016-02-17T11:38:33.180Z,7.08
2016-02-17T11:39:33.182Z,7.08
2016-02-17T11:40:33.185Z,6.97
2016-02-17T11:41:33.204Z,6.93
2016-02-17T11:42:33.191Z,6.9
2016-02-17T11:43:33.225Z,6.8
2016-02-17T11:44:33.212Z,6.8
2016-02-17T11:45:33.277Z,6.7
2016-02-17T11:46:33.202Z,6.64
2016-02-17T11:47:33.190Z,6.6
2016-02-17T11:48:33.224Z,6.49
2016-02-17T11:49:33.195Z,6.47
2016-02-17T11:50:33.181Z,6.56
2016-02-17T11:51:33.185Z,6.49
2016-02-17T11:52:33.187Z,6.49
2016-02-17T11:53:33.174Z,6.36
2016-02-17T11:54:33.177Z,6.39
2016-02-17T11:55:33.179Z,6.25
2016-02-17T11:56:33.182Z,6.22
2016-02-17T11:57:33.185Z,6.19
2016-02-17T11:58:33.187Z,6.15
2016-02-17T11:59:33.191Z,6.12
2016-02-17T12:00:33.178Z,6.1
2016-02-17T12:01:33.195Z,6.1
2016-02-17T12:02:33.184Z,6.19
2016-02-17T12:03:33.186Z,6.28
2016-02-17T12:04:33.220Z,6.22
2016-02-17T12:05:33.196Z,6.26
2016-02-17T12:06:33.199Z,6.32
2016-02-17T12:07:33.185Z,6.43
2016-02-17T12:08:33.188Z,6.35
2016-02-17T12:09:33.191Z,6.38
2016-02-17T12:10:33.178Z,6.32
2016-02-17T12:11:33.196Z,6.39
2016-02-17T12:12:33.183Z,6.31
2016-02-17T12:13:33.186Z,6.36
2016-02-17T12:14:33.205Z,6.28
2016-02-17T12:15:33.191Z,6.17
2016-02-17T12:16:33.210Z,6.19
2016-02-17T12:17:33.196Z,6.17
2016-02-17T12:18:33.200Z,6.15
2016-02-17T12:19:33.187Z,6.16
2016-02-17T12:20:33.189Z,6.31
2016-02-17T12:21:33.177Z,6.26
2016-02-17T12:22:33.195Z,6.29
2016-02-17T12:23:33.182Z,6.22
2016-02-17T12:24:33.168Z,6.28
2016-02-17T12:25:33.187Z,6.32
2016-02-17T12:26:33.190Z,6.36
2016-02-17T12:27:33.193Z,6.29
2016-02-17T12:28:33.195Z,6.34
2016-02-17T12:29:33.181Z,6.36
2016-02-17T12:30:33.201Z,6.39
2016-02-17T12:31:33.187Z,6.43
2016-02-17T12:32:33.190Z,6.39
2016-02-17T12:33:33.209Z,6.44
2016-02-17T12:34:33.180Z,6.52
2016-02-17T12:35:33.183Z,6.56
2016-02-17T12:36:33.186Z,6.43
2016-02-17T12:37:33.188Z,6.36
2016-02-17T12:38:33.191Z,6.35
2016-02-17T12:39:33.194Z,6.39
2016-02-17T12:40:33.197Z,6.39
2016-02-17T12:41:33.183Z,6.41
2016-02-17T12:42:33.186Z,6.56
2016-02-17T12:43:33.189Z,6.46
2016-02-17T12:44:33.191Z,6.43
2016-02-17T12:45:33.194Z,6.46
2016-02-17T12:46:33.182Z,6.36
2016-02-17T12:47:33.184Z,6.36
2016-02-17T12:48:33.202Z,6.34
2016-02-17T12:49:33.205Z,6.44
2016-02-17T12:50:33.176Z,6.36
2016-02-17T12:51:33.195Z,6.49
2016-02-17T12:52:33.198Z,6.47
2016-02-17T12:53:33.184Z,6.49
2016-02-17T12:54:33.187Z,6.57
2016-02-17T12:55:33.190Z,6.53
2016-02-17T12:56:33.176Z,6.57
2016-02-17T12:57:33.179Z,6.54
2016-02-17T12:58:33.182Z,6.6
2016-02-17T12:59:33.184Z,6.68
2016-02-17T13:00:33.204Z,6.67
2016-02-17T13:01:33.190Z,6.74
2016-02-17T13:02:33.192Z,6.8
2016-02-17T13:03:33.181Z,6.74
2016-02-17T13:04:33.183Z,6.85
2016-02-17T13:05:33.186Z,6.9
2016-02-17T13:06:33.188Z,6.93
2016-02-17T13:07:33.191Z,6.92
2016-02-17T13:08:33.209Z,6.95
2016-02-17T13:09:33.181Z,6.97
2016-02-17T13:10:33.199Z,6.93
2016-02-17T13:11:33.185Z,6.95
2016-02-17T13:12:33.188Z,6.97
2016-02-17T13:13:33.191Z,6.86
2016-02-17T13:14:33.194Z,6.89
2016-02-17T13:15:33.196Z,6.96
2016-02-17T13:16:33.183Z,6.92
2016-02-17T13:17:33.186Z,7.01
2016-02-17T13:18:33.189Z,7.08
2016-02-17T13:19:33.192Z,7.1
2016-02-17T13:20:33.194Z,7.11
2016-02-17T13:21:33.196Z,7.14